Time;durP1;ratioP1;P1;durP2;ratioP2;P2;SDS_P1;SDS_P2;PMS_P1;PMS_P2;Temp;Humidity;BMP_temperature;BMP_pressure;BME280_temperature;BME280_humidity;BME280_pressure;Samples;Min_cycle;Max_cycle;Signal;HPM_P1;HPM_P2
2020/12/08 00:00:21;;;;;;;4.57;4.03;;;19.00;62.50;;;;;;5103594;28;20495;-54
2020/12/08 00:02:47;;;;;;;4.57;4.30;;;19.00;62.50;;;;;;5088242;28;20128;-52
2020/12/08 00:05:14;;;;;;;4.32;3.97;;;19.00;62.40;;;;;;5112637;27;20092;-54
2020/12/08 00:07:40;;;;;;;5.00;4.35;;;19.10;62.30;;;;;;5108113;27;20039;-50
2020/12/08 00:10:06;;;;;;;4.60;4.20;;;19.00;62.30;;;;;;5110993;27;20410;-53
2020/12/08 00:12:31;;;;;;;4.30;4.00;;;19.00;62.30;;;;;;5112418;27;20035;-49
2020/12/08 00:14:57;;;;;;;4.55;3.88;;;19.10;62.30;;;;;;5108986;27;20487;-52
2020/12/08 00:17:22;;;;;;;4.60;4.30;;;19.00;62.20;;;;;;5105485;27;20044;-49
2020/12/08 00:19:48;;;;;;;4.57;4.18;;;19.00;62.40;;;;;;5107109;27;20052;-50
2020/12/08 00:22:14;;;;;;;4.50;4.15;;;19.00;62.40;;;;;;5105104;27;20043;-50
2020/12/08 00:24:40;;;;;;;5.00;4.07;;;19.00;62.30;;;;;;5118657;27;20117;-50
2020/12/08 00:27:08;;;;;;;3.78;3.53;;;18.90;62.30;;;;;;5122272;27;20502;-53
2020/12/08 00:29:33;;;;;;;4.00;3.70;;;18.90;62.50;;;;;;5121287;27;20058;-54
2020/12/08 00:31:59;;;;;;;4.00;3.70;;;18.90;62.60;;;;;;5116856;27;20387;-53
2020/12/08 00:34:25;;;;;;;4.20;3.90;;;18.90;62.60;;;;;;5108749;27;20402;-53
2020/12/08 00:36:50;;;;;;;4.57;4.18;;;18.80;62.50;;;;;;5117491;27;20036;-55
2020/12/08 00:39:16;;;;;;;5.13;4.05;;;18.80;62.50;;;;;;5113013;27;20039;-50
2020/12/08 00:41:41;;;;;;;3.63;3.42;;;18.80;62.70;;;;;;5113434;27;20463;-52
2020/12/08 00:44:07;;;;;;;4.22;3.83;;;18.80;62.80;;;;;;5106519;27;20036;-55
2020/12/08 00:46:32;;;;;;;4.63;4.22;;;18.80;62.50;;;;;;5104920;27;20616;-53
2020/12/08 00:48:58;;;;;;;3.60;3.40;;;18.80;62.60;;;;;;5114041;27;20035;-53
2020/12/08 00:51:24;;;;;;;3.90;3.60;;;18.70;62.50;;;;;;5112101;27;20059;-54
2020/12/08 00:53:49;;;;;;;4.10;3.80;;;18.80;62.70;;;;;;5104700;28;20046;-51
2020/12/08 00:56:15;;;;;;;4.25;3.90;;;18.70;62.60;;;;;;5111676;27;20052;-55
2020/12/08 00:58:40;;;;;;;3.65;3.45;;;18.70;62.60;;;;;;5106821;27;20066;-55
2020/12/08 01:01:07;;;;;;;3.78;3.58;;;18.70;62.70;;;;;;5110179;27;20031;-58
2020/12/08 01:03:33;;;;;;;3.78;3.58;;;18.70;62.80;;;;;;5104747;27;20168;-57
2020/12/08 01:05:59;;;;;;;3.88;3.58;;;18.60;62.70;;;;;;5100297;28;20134;-58
2020/12/08 01:08:25;;;;;;;4.25;3.95;;;18.70;62.80;;;;;;5106436;27;20075;-56
2020/12/08 01:10:52;;;;;;;3.95;3.60;;;18.70;62.80;;;;;;5108939;27;20067;-56
2020/12/08 01:13:18;;;;;;;3.88;3.58;;;18.70;62.80;;;;;;5114581;27;20111;-55
2020/12/08 01:15:43;;;;;;;3.78;3.38;;;18.60;62.80;;;;;;5107020;27;20482;-53
2020/12/08 01:18:09;;;;;;;3.78;3.58;;;18.60;63.00;;;;;;5112297;27;20036;-52
2020/12/08 01:20:34;;;;;;;3.90;3.70;;;18.60;62.90;;;;;;5107984;27;20040;-54
2020/12/08 01:23:00;;;;;;;4.30;3.90;;;18.60;62.80;;;;;;5109099;27;20047;-53
2020/12/08 01:25:29;;;;;;;3.35;3.15;;;18.60;62.90;;;;;;5109100;27;20478;-58
2020/12/08 01:27:55;;;;;;;3.85;3.65;;;18.60;62.80;;;;;;5106881;27;20071;-54
2020/12/08 01:30:20;;;;;;;3.60;3.40;;;18.60;62.90;;;;;;5104305;27;20511;-55
2020/12/08 01:32:46;;;;;;;3.08;2.90;;;18.50;62.80;;;;;;5103430;27;20044;-49
2020/12/08 01:35:11;;;;;;;3.55;3.25;;;18.60;62.90;;;;;;5106420;27;20036;-51
2020/12/08 01:37:37;;;;;;;3.20;2.88;;;18.60;62.80;;;;;;5109428;27;20075;-54
2020/12/08 01:40:03;;;;;;;3.13;2.65;;;18.60;62.90;;;;;;5115740;27;20184;-53
2020/12/08 01:42:29;;;;;;;3.30;3.10;;;18.50;62.90;;;;;;5106254;27;20071;-55
2020/12/08 01:44:54;;;;;;;3.20;3.00;;;18.50;62.90;;;;;;5111269;27;20063;-53
2020/12/08 01:47:20;;;;;;;3.53;3.15;;;18.50;62.90;;;;;;5114322;27;20054;-53
2020/12/08 01:49:46;;;;;;;3.53;3.33;;;18.50;62.80;;;;;;5111932;27;20031;-54
2020/12/08 01:52:15;;;;;;;3.17;2.97;;;18.50;62.70;;;;;;5085575;28;20056;-52
2020/12/08 01:54:51;;;;;;;3.70;3.10;;;18.50;62.60;;;;;;5113554;27;20036;-53
2020/12/08 01:57:17;;;;;;;3.50;3.30;;;18.50;62.80;;;;;;5113222;27;20512;-57
2020/12/08 07:53:22;;;;;;;3.08;1.40;;;17.40;68.40;;;;;;5048661;27;20142;-55
2020/12/08 07:55:48;;;;;;;1.52;1.42;;;17.40;69.10;;;;;;5029353;28;20046;-55
2020/12/08 07:58:13;;;;;;;4.15;1.58;;;17.40;68.80;;;;;;5032061;28;20041;-51
2020/12/08 08:00:39;;;;;;;3.88;1.70;;;17.40;68.50;;;;;;5033150;28;20218;-50
2020/12/08 08:03:05;;;;;;;2.38;1.55;;;17.40;68.40;;;;;;5036047;28;20127;-50
2020/12/08 08:05:31;;;;;;;1.80;1.70;;;17.40;68.40;;;;;;5037440;28;20131;-55
2020/12/08 08:07:57;;;;;;;3.53;1.75;;;17.40;68.00;;;;;;5029400;28;20041;-57
2020/12/08 08:10:22;;;;;;;2.22;1.83;;;17.40;68.00;;;;;;5023673;28;20103;-52
2020/12/08 08:12:48;;;;;;;2.03;1.52;;;17.40;67.90;;;;;;5036964;28;20171;-55
2020/12/08 08:15:13;;;;;;;2.55;1.67;;;17.40;67.80;;;;;;5031851;28;20080;-50
2020/12/08 08:17:39;;;;;;;3.78;1.60;;;17.40;68.00;;;;;;5028710;28;20458;-51
2020/12/08 08:20:05;;;;;;;3.85;1.60;;;17.40;67.90;;;;;;5026502;28;20049;-53
2020/12/08 08:22:30;;;;;;;1.75;1.20;;;17.40;67.80;;;;;;5034724;28;20048;-54
2020/12/08 08:24:57;;;;;;;3.40;2.05;;;17.40;67.80;;;;;;5038937;28;20471;-54
2020/12/08 08:27:22;;;;;;;1.77;1.55;;;17.40;67.60;;;;;;5014100;28;20054;-54
2020/12/08 08:29:48;;;;;;;1.67;1.58;;;17.40;67.50;;;;;;5038742;28;20669;-54
2020/12/08 08:32:13;;;;;;;1.70;1.60;;;17.40;67.40;;;;;;5035392;28;20081;-56
2020/12/08 08:34:39;;;;;;;2.03;1.50;;;17.40;67.40;;;;;;5038760;28;20048;-54
2020/12/08 08:37:04;;;;;;;1.52;1.20;;;17.40;67.20;;;;;;5029782;28;20048;-58
2020/12/08 08:39:30;;;;;;;2.72;1.20;;;17.40;67.20;;;;;;5030690;28;20550;-58
2020/12/08 08:41:55;;;;;;;4.82;1.65;;;17.40;67.20;;;;;;5042268;28;20037;-54
2020/12/08 08:44:21;;;;;;;1.60;1.50;;;17.40;67.30;;;;;;5045294;28;20037;-54
2020/12/08 08:46:47;;;;;;;2.63;1.23;;;17.50;67.00;;;;;;5033809;28;20381;-54
2020/12/08 08:49:14;;;;;;;1.40;1.30;;;17.50;67.00;;;;;;5033342;28;20038;-58
2020/12/08 08:51:44;;;;;;;3.72;1.23;;;17.50;66.60;;;;;;5030884;28;20104;-50
2020/12/08 08:54:10;;;;;;;2.75;1.60;;;17.50;66.50;;;;;;5039112;28;20056;-56
2020/12/08 08:56:36;;;;;;;1.75;1.40;;;17.50;66.40;;;;;;5036379;28;20045;-55
2020/12/08 08:59:02;;;;;;;1.48;1.38;;;17.60;66.10;;;;;;5026038;28;20042;-55
2020/12/08 09:01:27;;;;;;;1.23;1.13;;;17.60;66.90;;;;;;5019769;28;20041;-52
2020/12/08 09:03:53;;;;;;;1.50;1.40;;;17.50;66.10;;;;;;5020116;28;20045;-51
2020/12/08 09:06:18;;;;;;;1.50;1.40;;;17.60;66.10;;;;;;5027782;28;20049;-52
2020/12/08 09:08:44;;;;;;;1.27;1.20;;;17.50;66.10;;;;;;5014581;28;20077;-55
2020/12/08 09:11:09;;;;;;;1.38;1.30;;;17.60;65.90;;;;;;5011264;28;20445;-55
2020/12/08 09:13:36;;;;;;;3.15;1.40;;;17.50;65.70;;;;;;5015457;28;20577;-55
2020/12/08 09:16:01;;;;;;;1.40;1.30;;;17.60;65.70;;;;;;5012730;28;20460;-50
2020/12/08 09:18:27;;;;;;;2.17;1.40;;;17.60;65.40;;;;;;5014490;28;20037;-53
2020/12/08 09:20:53;;;;;;;2.70;1.20;;;17.70;65.20;;;;;;5021302;28;20034;-54
2020/12/08 09:23:20;;;;;;;1.40;1.30;;;17.70;65.10;;;;;;5022917;28;20046;-55
2020/12/08 09:25:45;;;;;;;1.52;1.10;;;17.70;65.20;;;;;;5012904;28;20038;-54
2020/12/08 09:28:11;;;;;;;1.30;1.20;;;17.70;65.20;;;;;;5027066;28;20578;-53
2020/12/08 09:30:37;;;;;;;1.80;1.70;;;17.70;65.30;;;;;;5022895;28;20123;-55
2020/12/08 09:33:02;;;;;;;1.75;1.65;;;17.70;65.20;;;;;;5026740;28;20568;-54
2020/12/08 09:35:28;;;;;;;2.80;1.48;;;17.70;65.10;;;;;;5028584;28;20041;-51
2020/12/08 09:37:53;;;;;;;1.77;1.30;;;17.80;65.20;;;;;;5044732;28;20103;-53
2020/12/08 09:40:19;;;;;;;1.65;1.30;;;17.80;65.00;;;;;;5026473;28;20140;-47
2020/12/08 09:42:45;;;;;;;1.42;1.33;;;17.80;65.00;;;;;;5005352;28;20038;-49
2020/12/08 09:45:11;;;;;;;1.40;1.27;;;17.90;64.90;;;;;;5006972;28;20456;-51
2020/12/08 09:47:37;;;;;;;1.27;1.13;;;17.90;64.80;;;;;;5009232;28;20125;-57
2020/12/08 09:50:06;;;;;;;1.40;1.30;;;18.00;64.80;;;;;;5023596;28;20129;-56
2020/12/08 09:52:32;;;;;;;2.42;1.63;;;18.00;64.90;;;;;;5021826;28;20049;-54
2020/12/08 09:54:58;;;;;;;1.50;1.40;;;18.00;64.70;;;;;;5029383;28;20098;-57
2020/12/08 09:57:24;;;;;;;1.25;1.17;;;18.10;64.70;;;;;;5028081;28;20079;-56
2020/12/08 09:59:51;;;;;;;1.15;1.15;;;18.10;64.60;;;;;;5029425;28;20068;-53
2020/12/08 10:02:17;;;;;;;1.55;1.45;;;18.10;64.60;;;;;;5030513;28;20038;-54
2020/12/08 10:04:43;;;;;;;1.48;1.38;;;18.10;64.60;;;;;;5029264;28;20045;-51
2020/12/08 10:07:10;;;;;;;1.52;1.40;;;18.10;64.60;;;;;;5028082;28;20049;-49
2020/12/08 10:09:35;;;;;;;1.92;1.48;;;18.10;64.70;;;;;;5028776;28;20061;-48
2020/12/08 10:12:01;;;;;;;1.25;1.20;;;18.10;64.70;;;;;;5029277;28;20512;-51
2020/12/08 10:14:26;;;;;;;1.45;1.38;;;18.00;64.70;;;;;;5033148;28;20103;-55
2020/12/08 10:16:52;;;;;;;1.35;1.10;;;18.00;64.90;;;;;;5028097;28;20049;-52
2020/12/08 10:19:18;;;;;;;1.50;1.40;;;18.00;65.10;;;;;;5026350;28;20128;-54
2020/12/08 10:21:44;;;;;;;1.17;1.17;;;18.00;65.10;;;;;;5028995;28;20088;-51
2020/12/08 10:24:09;;;;;;;1.90;1.50;;;18.00;65.20;;;;;;5029413;28;20073;-51
2020/12/08 10:26:35;;;;;;;1.38;1.27;;;18.00;65.10;;;;;;5029157;28;20034;-52
2020/12/08 10:29:00;;;;;;;1.00;1.00;;;18.00;65.10;;;;;;5027000;28;20034;-49
2020/12/08 10:31:26;;;;;;;3.00;1.98;;;18.00;65.10;;;;;;5028684;28;20504;-53
2020/12/08 10:33:52;;;;;;;2.25;1.17;;;18.00;65.10;;;;;;5024074;28;20479;-49
2020/12/08 10:36:18;;;;;;;2.05;1.23;;;18.00;65.20;;;;;;5027221;28;20049;-54
2020/12/08 10:38:43;;;;;;;2.47;1.02;;;18.00;65.20;;;;;;5028446;28;20416;-54
2020/12/08 10:41:09;;;;;;;1.83;1.10;;;17.90;65.20;;;;;;5028615;28;20519;-55
2020/12/08 10:43:34;;;;;;;1.55;1.42;;;18.00;65.10;;;;;;5017138;28;20042;-53
2020/12/08 10:46:00;;;;;;;0.90;0.90;;;18.00;65.10;;;;;;5026132;28;20056;-54
2020/12/08 10:48:26;;;;;;;1.52;1.30;;;18.10;65.00;;;;;;5028954;28;20091;-54
2020/12/08 10:50:51;;;;;;;1.23;1.00;;;18.00;64.80;;;;;;5024879;28;20053;-52
2020/12/08 10:53:17;;;;;;;1.27;0.90;;;18.10;64.80;;;;;;5030316;28;20042;-54
2020/12/08 10:55:42;;;;;;;1.17;1.02;;;18.10;64.50;;;;;;5027201;28;20050;-51
2020/12/08 10:58:08;;;;;;;1.20;1.10;;;18.10;64.50;;;;;;5029021;28;20433;-56
2020/12/08 11:00:33;;;;;;;1.25;1.15;;;18.10;64.40;;;;;;5027611;28;20048;-53
2020/12/08 11:02:59;;;;;;;1.20;1.20;;;18.10;64.30;;;;;;5028858;28;20049;-53
2020/12/08 11:05:25;;;;;;;1.20;1.20;;;18.20;64.30;;;;;;5026125;28;20033;-55
2020/12/08 11:07:51;;;;;;;1.48;1.38;;;18.20;64.20;;;;;;5027902;28;20045;-52
2020/12/08 11:10:16;;;;;;;1.35;1.23;;;18.20;64.20;;;;;;5026362;28;20049;-53
2020/12/08 11:12:42;;;;;;;1.30;1.20;;;18.20;64.10;;;;;;5023843;28;20493;-53
2020/12/08 11:15:07;;;;;;;1.10;1.10;;;18.30;63.90;;;;;;5010463;28;20132;-55
2020/12/08 11:17:36;;;;;;;1.10;1.10;;;18.30;63.70;;;;;;5024102;28;20496;-52
2020/12/08 11:20:02;;;;;;;1.10;1.00;;;18.40;63.30;;;;;;5027473;28;20153;-50
2020/12/08 11:22:28;;;;;;;1.58;1.30;;;18.40;62.90;;;;;;5028127;28;20047;-55
2020/12/08 11:24:53;;;;;;;4.00;1.02;;;18.50;62.70;;;;;;5024673;28;20057;-53
2020/12/08 11:27:19;;;;;;;1.80;0.95;;;18.50;62.50;;;;;;5027508;28;20797;-51
2020/12/08 11:29:45;;;;;;;2.95;1.30;;;18.50;62.60;;;;;;5026781;28;20447;-56
2020/12/08 11:32:14;;;;;;;1.33;1.23;;;18.50;62.70;;;;;;5026243;28;20041;-52
2020/12/08 11:34:40;;;;;;;6.47;1.67;;;18.50;62.60;;;;;;5026209;28;20144;-52
2020/12/08 11:37:06;;;;;;;1.98;1.00;;;18.60;62.70;;;;;;5027022;28;20487;-56
2020/12/08 11:39:32;;;;;;;5.72;1.40;;;18.60;62.60;;;;;;5027632;28;20034;-54
2020/12/08 11:41:57;;;;;;;11.10;2.55;;;18.60;62.70;;;;;;5025717;28;20091;-54
2020/12/08 11:44:23;;;;;;;25.42;9.20;;;18.60;62.60;;;;;;5029534;28;20049;-52
2020/12/08 11:46:52;;;;;;;62.00;17.85;;;18.60;63.20;;;;;;5027415;28;20489;-49
2020/12/08 11:49:18;;;;;;;231.75;46.38;;;18.50;63.80;;;;;;5027985;28;20060;-48
2020/12/08 11:51:44;;;;;;;118.38;21.75;;;18.60;64.20;;;;;;4674260;28;10000078;-51
2020/12/08 11:54:10;;;;;;;90.38;20.77;;;18.60;63.30;;;;;;5026951;28;20037;-49
2020/12/08 11:56:35;;;;;;;156.15;34.40;;;18.60;62.50;;;;;;5028665;28;20075;-48
2020/12/08 11:59:01;;;;;;;132.75;30.02;;;18.60;63.40;;;;;;5025391;28;20404;-51
2020/12/08 12:01:26;;;;;;;138.88;34.45;;;18.70;63.60;;;;;;5023784;28;20424;-52
2020/12/08 12:03:52;;;;;;;134.55;32.55;;;18.70;63.60;;;;;;5022363;28;20180;-52
2020/12/08 12:06:17;;;;;;;143.50;33.83;;;18.70;63.70;;;;;;5020729;28;20061;-48
2020/12/08 12:08:43;;;;;;;127.00;29.55;;;18.80;63.60;;;;;;5021264;28;20049;-46
2020/12/08 12:11:08;;;;;;;114.78;28.42;;;18.80;63.40;;;;;;5022332;28;20037;-55
2020/12/08 12:13:35;;;;;;;115.78;26.77;;;18.80;63.30;;;;;;5020454;28;20854;-49
2020/12/08 12:16:00;;;;;;;106.95;28.75;;;18.80;63.20;;;;;;5047596;28;20092;-48
2020/12/08 12:18:26;;;;;;;108.03;28.45;;;18.80;63.70;;;;;;5022832;28;20922;-48
2020/12/08 12:20:52;;;;;;;101.63;25.27;;;18.80;63.50;;;;;;5022439;28;20053;-51
2020/12/08 12:23:17;;;;;;;81.97;24.15;;;18.90;63.10;;;;;;5019213;28;20049;-48
2020/12/08 12:25:43;;;;;;;79.97;22.23;;;18.90;63.40;;;;;;5022769;28;20050;-50
2020/12/08 12:28:08;;;;;;;76.65;24.20;;;18.90;63.00;;;;;;5024199;28;20065;-52
2020/12/08 12:30:34;;;;;;;87.55;25.05;;;18.90;63.00;;;;;;5022516;28;20077;-51
2020/12/08 12:32:59;;;;;;;74.93;20.17;;;18.90;63.00;;;;;;5017340;28;20080;-50
2020/12/08 12:35:25;;;;;;;71.60;21.65;;;18.90;62.60;;;;;;5024681;28;20628;-49
2020/12/08 12:37:51;;;;;;;65.68;20.38;;;18.80;62.50;;;;;;5023339;28;20041;-53
2020/12/08 12:40:17;;;;;;;58.38;18.35;;;18.80;62.30;;;;;;5027279;28;20100;-50
2020/12/08 12:42:42;;;;;;;77.32;19.35;;;18.80;62.40;;;;;;5027908;28;20037;-51
2020/12/08 12:45:08;;;;;;;57.60;17.75;;;18.70;62.40;;;;;;5026054;28;20092;-50
2020/12/08 12:47:34;;;;;;;50.58;18.08;;;18.80;62.60;;;;;;5029849;28;20040;-50
2020/12/08 12:50:00;;;;;;;59.65;18.90;;;18.80;62.50;;;;;;5031346;28;20052;-47
2020/12/08 12:52:25;;;;;;;53.58;16.90;;;18.90;62.70;;;;;;5030982;28;20528;-48
2020/12/08 12:54:52;;;;;;;51.17;17.30;;;19.00;62.80;;;;;;5028188;28;20041;-48
2020/12/08 12:57:18;;;;;;;52.88;16.15;;;18.90;62.30;;;;;;5029766;28;20041;-53
2020/12/08 12:59:43;;;;;;;51.97;17.38;;;19.00;62.50;;;;;;5030268;28;20041;-52
2020/12/08 13:02:09;;;;;;;48.05;17.45;;;19.00;62.30;;;;;;5031345;28;20037;-51
2020/12/08 13:04:35;;;;;;;47.65;15.13;;;19.00;62.10;;;;;;5031797;28;20052;-51
2020/12/08 13:07:00;;;;;;;53.30;16.65;;;19.00;62.00;;;;;;5029542;28;20551;-48
2020/12/08 13:09:26;;;;;;;53.00;16.33;;;19.00;61.90;;;;;;5028816;28;20403;-53
2020/12/08 13:11:51;;;;;;;40.55;15.50;;;19.00;62.00;;;;;;5028236;28;20069;-50
2020/12/08 13:14:17;;;;;;;46.10;15.68;;;19.00;61.70;;;;;;5022131;28;20485;-53
2020/12/08 13:16:42;;;;;;;45.70;14.00;;;18.90;61.90;;;;;;5029347;28;20045;-52
2020/12/08 13:19:09;;;;;;;46.50;14.25;;;18.90;62.10;;;;;;5024933;28;20041;-48
2020/12/08 13:21:34;;;;;;;41.70;14.95;;;19.00;61.90;;;;;;5030199;28;20451;-51
2020/12/08 13:24:00;;;;;;;33.53;12.98;;;19.00;62.20;;;;;;5024902;28;20114;-53
2020/12/08 13:26:25;;;;;;;36.08;14.27;;;19.00;62.20;;;;;;5027888;28;20407;-49
2020/12/08 13:28:51;;;;;;;30.70;11.95;;;19.00;62.00;;;;;;5028281;28;20582;-48
2020/12/08 13:31:17;;;;;;;37.88;12.68;;;19.00;62.10;;;;;;5027492;28;20037;-50
2020/12/08 13:33:42;;;;;;;36.97;12.45;;;19.00;61.80;;;;;;5028036;28;20144;-49
2020/12/08 13:36:08;;;;;;;29.92;11.18;;;19.00;62.20;;;;;;5029111;28;20075;-48
2020/12/08 13:38:33;;;;;;;34.55;13.18;;;19.00;62.20;;;;;;5029269;28;20133;-48
2020/12/08 13:40:59;;;;;;;32.72;11.38;;;19.00;62.20;;;;;;5028639;28;20069;-52
2020/12/08 13:43:24;;;;;;;31.98;11.75;;;19.00;62.10;;;;;;5026920;28;20047;-49
2020/12/08 13:45:50;;;;;;;32.42;12.55;;;19.00;62.30;;;;;;5027673;28;20077;-49
2020/12/08 13:48:15;;;;;;;33.55;11.52;;;18.90;62.20;;;;;;5028099;28;20049;-48
2020/12/08 13:50:42;;;;;;;25.10;10.43;;;19.00;62.30;;;;;;5030171;28;20093;-48
2020/12/08 13:53:12;;;;;;;32.13;11.68;;;18.90;62.30;;;;;;5030710;28;20045;-47
2020/12/08 13:55:38;;;;;;;36.22;12.23;;;18.90;62.30;;;;;;5016330;28;20053;-48
2020/12/08 13:58:04;;;;;;;30.48;11.32;;;18.90;62.30;;;;;;5020574;28;20049;-52
2020/12/08 14:00:32;;;;;;;29.48;10.48;;;18.90;62.30;;;;;;5029769;28;20044;-49
2020/12/08 14:02:59;;;;;;;23.23;9.85;;;18.90;62.20;;;;;;5034227;28;20050;-49
2020/12/08 14:05:24;;;;;;;23.92;10.63;;;18.90;62.10;;;;;;5029144;28;20038;-47
2020/12/08 14:07:50;;;;;;;26.67;9.38;;;18.80;62.10;;;;;;5023026;28;20126;-49
2020/12/08 14:10:18;;;;;;;27.55;10.43;;;18.90;62.00;;;;;;5007123;28;20046;-49
2020/12/08 14:12:43;;;;;;;25.45;9.38;;;18.90;62.00;;;;;;5007738;28;20042;-47
2020/12/08 14:15:09;;;;;;;24.80;8.90;;;18.90;61.90;;;;;;5009285;28;20045;-50
2020/12/08 14:17:34;;;;;;;23.92;9.25;;;18.80;61.80;;;;;;5010550;28;20049;-51
2020/12/08 14:20:00;;;;;;;21.33;8.80;;;18.80;61.70;;;;;;5009844;28;20041;-49
2020/12/08 14:22:26;;;;;;;29.60;9.52;;;18.80;61.80;;;;;;5021231;28;20489;-48
2020/12/08 14:24:53;;;;;;;21.33;8.70;;;18.80;62.00;;;;;;5016013;28;20416;-51
2020/12/08 14:27:19;;;;;;;19.67;8.48;;;18.80;61.90;;;;;;5029134;28;20049;-46
2020/12/08 14:29:45;;;;;;;23.27;8.77;;;18.80;61.80;;;;;;5028794;28;20033;-48
2020/12/08 14:32:11;;;;;;;22.30;8.07;;;18.90;61.90;;;;;;5028871;28;20053;-49
2020/12/08 14:34:36;;;;;;;18.15;8.48;;;18.90;62.00;;;;;;5029065;28;20563;-48
2020/12/08 14:37:02;;;;;;;20.35;8.55;;;18.80;62.00;;;;;;5028534;28;20548;-49
2020/12/08 14:39:27;;;;;;;21.20;8.70;;;18.80;62.10;;;;;;5028762;28;20048;-49
2020/12/08 14:41:53;;;;;;;16.40;7.45;;;18.80;62.10;;;;;;5028749;28;20056;-48
2020/12/08 14:44:18;;;;;;;15.98;7.30;;;18.70;62.10;;;;;;5030067;28;20088;-48
2020/12/08 14:46:44;;;;;;;20.02;8.60;;;18.70;62.30;;;;;;5028818;28;20076;-49
2020/12/08 14:49:09;;;;;;;15.40;8.38;;;18.70;62.30;;;;;;5028619;28;20049;-53
2020/12/08 14:51:35;;;;;;;18.40;7.82;;;18.70;62.20;;;;;;5028333;28;20069;-51
2020/12/08 14:54:00;;;;;;;16.30;7.10;;;18.70;62.20;;;;;;5025700;28;20045;-53
2020/12/08 14:56:26;;;;;;;17.20;7.45;;;18.70;62.20;;;;;;5029669;28;20037;-51
2020/12/08 14:58:52;;;;;;;15.65;6.75;;;18.70;62.20;;;;;;5025747;28;20045;-51
2020/12/08 15:01:18;;;;;;;17.20;7.35;;;18.70;62.50;;;;;;5025796;28;20049;-49
2020/12/08 15:03:43;;;;;;;15.93;6.72;;;18.70;62.10;;;;;;5022899;28;20532;-51
2020/12/08 15:06:15;;;;;;;11.70;6.63;;;18.70;62.20;;;;;;5025166;28;20049;-49
2020/12/08 15:08:41;;;;;;;15.48;6.55;;;18.80;62.30;;;;;;5025986;28;20048;-48
2020/12/08 15:11:07;;;;;;;14.65;7.20;;;18.80;62.20;;;;;;5026083;28;20053;-50
2020/12/08 15:13:32;;;;;;;13.85;6.60;;;18.80;62.10;;;;;;5025332;28;20044;-53
2020/12/08 15:15:58;;;;;;;15.73;6.95;;;18.80;61.70;;;;;;5026206;28;20049;-49
2020/12/08 15:18:24;;;;;;;13.75;5.32;;;18.80;62.00;;;;;;5028005;28;20045;-53
2020/12/08 15:20:50;;;;;;;12.98;6.68;;;18.80;62.10;;;;;;5026036;28;20524;-51
2020/12/08 15:23:16;;;;;;;12.43;5.38;;;18.80;62.20;;;;;;5029314;28;20125;-54
2020/12/08 15:25:41;;;;;;;12.20;5.57;;;18.80;62.20;;;;;;5026938;28;20053;-53
2020/12/08 15:28:08;;;;;;;15.80;5.80;;;18.80;62.50;;;;;;5024445;28;20061;-49
2020/12/08 15:30:33;;;;;;;12.05;5.30;;;18.80;62.20;;;;;;5025747;28;20247;-54
2020/12/08 15:32:59;;;;;;;15.90;6.53;;;18.90;62.30;;;;;;5026246;28;20045;-54
2020/12/08 15:35:25;;;;;;;11.98;5.30;;;18.90;62.30;;;;;;5025535;28;20465;-54
2020/12/08 15:37:54;;;;;;;11.13;6.18;;;18.80;62.40;;;;;;5026824;28;20124;-55
2020/12/08 15:40:19;;;;;;;9.80;5.03;;;18.80;62.50;;;;;;5029439;28;20091;-52
2020/12/08 15:42:45;;;;;;;8.25;4.50;;;18.80;62.50;;;;;;5036452;28;20037;-56
2020/12/08 15:45:11;;;;;;;11.40;4.97;;;18.80;62.40;;;;;;5023234;28;20507;-57
2020/12/08 15:47:39;;;;;;;10.13;4.88;;;18.80;62.40;;;;;;5025707;28;20069;-56
2020/12/08 15:50:06;;;;;;;9.25;4.85;;;18.80;62.50;;;;;;5024650;28;20073;-54
2020/12/08 15:52:35;;;;;;;10.05;5.40;;;18.80;62.70;;;;;;5026934;28;20077;-48
2020/12/08 15:55:01;;;;;;;10.68;4.78;;;18.80;62.50;;;;;;5025692;28;20048;-48
2020/12/08 15:57:27;;;;;;;9.10;4.80;;;18.80;62.50;;;;;;5027201;28;20046;-53
2020/12/08 15:59:52;;;;;;;11.15;4.70;;;18.80;62.60;;;;;;5026514;28;20100;-50
2020/12/08 16:02:20;;;;;;;7.35;4.68;;;18.80;62.60;;;;;;5027045;28;20095;-53
2020/12/08 16:04:46;;;;;;;7.85;4.90;;;18.80;62.60;;;;;;5025387;28;20048;-54
2020/12/08 16:07:12;;;;;;;6.00;3.92;;;18.80;62.50;;;;;;5025114;28;20477;-52
2020/12/08 16:09:37;;;;;;;6.82;4.47;;;18.80;62.50;;;;;;5024513;28;20101;-51
2020/12/08 16:12:03;;;;;;;7.78;4.07;;;18.80;62.30;;;;;;5024607;28;20049;-52
2020/12/08 16:14:29;;;;;;;9.20;3.80;;;18.70;62.40;;;;;;5028587;28;20063;-49
2020/12/08 16:16:54;;;;;;;9.52;4.25;;;18.70;62.60;;;;;;5026802;28;20037;-52
2020/12/08 16:19:20;;;;;;;9.05;4.38;;;18.70;62.60;;;;;;5029840;28;20049;-48
2020/12/08 16:21:45;;;;;;;9.02;3.70;;;18.70;62.70;;;;;;5025542;28;20136;-50
2020/12/08 16:24:11;;;;;;;13.00;3.80;;;18.70;62.70;;;;;;4677715;28;10000834;-51
2020/12/08 16:26:37;;;;;;;8.82;3.65;;;18.70;62.80;;;;;;5024021;28;20037;-49
2020/12/08 16:29:03;;;;;;;5.13;3.00;;;18.70;62.80;;;;;;5020055;28;20041;-50
2020/12/08 16:31:28;;;;;;;8.95;4.43;;;18.70;63.10;;;;;;5016187;28;20046;-54
2020/12/08 16:33:54;;;;;;;9.00;4.75;;;18.70;63.00;;;;;;5026328;28;20582;-54
2020/12/08 16:36:20;;;;;;;9.85;4.45;;;18.70;63.00;;;;;;5024605;28;20052;-55
2020/12/08 16:38:45;;;;;;;26.85;16.65;;;18.80;63.10;;;;;;5029764;28;20033;-49
2020/12/08 16:41:11;;;;;;;35.97;19.92;;;18.80;63.20;;;;;;5027600;28;20053;-51
2020/12/08 16:43:37;;;;;;;26.20;17.35;;;18.80;63.10;;;;;;5044423;28;20504;-54
2020/12/08 16:46:02;;;;;;;24.02;12.80;;;18.80;62.80;;;;;;5027173;28;20033;-50
2020/12/08 16:48:28;;;;;;;26.02;14.60;;;18.80;62.90;;;;;;5022795;28;20037;-49
2020/12/08 16:50:53;;;;;;;16.83;10.95;;;18.80;63.10;;;;;;5027955;28;20405;-52
2020/12/08 16:53:19;;;;;;;27.80;12.55;;;18.70;62.80;;;;;;5030052;28;20076;-50
2020/12/08 16:55:44;;;;;;;18.52;10.80;;;18.70;63.00;;;;;;5028180;28;20041;-52
2020/12/08 16:58:10;;;;;;;17.08;11.13;;;18.70;62.70;;;;;;5026995;28;20049;-55
2020/12/08 17:00:35;;;;;;;16.58;10.63;;;18.80;62.70;;;;;;5028312;28;20056;-49
2020/12/08 17:03:01;;;;;;;14.13;10.13;;;18.80;62.40;;;;;;5027122;28;20041;-53
2020/12/08 17:05:27;;;;;;;22.88;11.18;;;18.80;62.40;;;;;;5024405;28;20120;-51
2020/12/08 17:07:53;;;;;;;12.80;8.57;;;18.80;62.40;;;;;;5026291;28;20128;-51
2020/12/08 17:10:18;;;;;;;14.95;9.05;;;18.70;62.30;;;;;;5025740;28;20560;-54
2020/12/08 17:12:44;;;;;;;14.82;9.30;;;18.70;62.30;;;;;;5025553;28;20045;-50
2020/12/08 17:15:11;;;;;;;13.95;8.38;;;18.70;62.30;;;;;;5025279;28;20115;-50
2020/12/08 17:17:38;;;;;;;10.93;7.90;;;18.70;62.20;;;;;;5042028;28;20668;-51
2020/12/08 17:20:12;;;;;;;9.18;7.30;;;18.80;62.10;;;;;;5024237;28;20037;-52
2020/12/08 17:22:44;;;;;;;12.35;7.53;;;18.80;61.90;;;;;;5025245;28;20043;-48
2020/12/08 17:25:09;;;;;;;10.60;7.68;;;18.80;61.80;;;;;;5025611;28;20045;-56
2020/12/08 17:27:35;;;;;;;8.85;7.35;;;18.80;61.70;;;;;;5027496;28;20606;-54
2020/12/08 17:30:05;;;;;;;10.75;7.00;;;18.90;61.60;;;;;;5025570;28;20064;-52
2020/12/08 17:32:31;;;;;;;9.20;6.90;;;18.90;61.50;;;;;;5029027;28;20046;-52
2020/12/08 17:34:57;;;;;;;7.25;6.40;;;18.90;61.70;;;;;;5026280;28;20064;-50
2020/12/08 17:37:22;;;;;;;8.02;6.47;;;18.90;62.80;;;;;;5027150;28;20084;-48
2020/12/08 17:39:48;;;;;;;16.75;7.10;;;18.90;63.00;;;;;;5026498;28;20041;-49
2020/12/08 17:42:14;;;;;;;10.40;7.28;;;18.90;62.50;;;;;;5025906;28;20057;-50
2020/12/08 17:44:43;;;;;;;9.10;7.05;;;18.80;62.30;;;;;;5050698;28;20038;-49
2020/12/08 17:47:09;;;;;;;10.77;6.28;;;18.70;62.40;;;;;;5023039;28;20087;-50
2020/12/08 17:49:35;;;;;;;10.80;6.22;;;18.70;62.20;;;;;;5025633;28;20045;-53
2020/12/08 17:52:01;;;;;;;8.25;6.25;;;18.80;62.90;;;;;;5027423;28;20110;-52
2020/12/08 17:54:26;;;;;;;7.57;6.35;;;18.70;61.90;;;;;;5028045;28;20133;-53
2020/12/08 17:56:52;;;;;;;6.43;5.80;;;18.70;61.90;;;;;;5024481;28;20045;-49
2020/12/08 17:59:17;;;;;;;11.05;6.70;;;18.70;61.90;;;;;;5028817;28;20064;-53
2020/12/08 18:01:43;;;;;;;6.18;5.50;;;18.60;61.90;;;;;;5026718;28;20053;-48
2020/12/08 18:04:08;;;;;;;6.80;6.05;;;18.60;62.70;;;;;;5025492;28;20037;-52
2020/12/08 18:06:34;;;;;;;8.98;5.75;;;18.60;61.90;;;;;;5027844;28;20041;-49
2020/12/08 18:09:00;;;;;;;6.05;5.55;;;18.60;61.90;;;;;;5023944;28;20212;-50
2020/12/08 18:11:25;;;;;;;6.40;5.57;;;18.60;61.80;;;;;;4671177;28;10000389;-50
2020/12/08 18:13:52;;;;;;;7.63;5.75;;;18.60;61.90;;;;;;5024458;28;20128;-49
2020/12/08 18:16:18;;;;;;;6.90;5.80;;;18.60;61.90;;;;;;5025907;28;20510;-48
2020/12/08 18:18:43;;;;;;;6.93;5.88;;;18.60;61.80;;;;;;5025512;28;20104;-53
2020/12/08 18:21:09;;;;;;;8.45;5.55;;;18.70;62.00;;;;;;5025261;28;20053;-50
2020/12/08 18:23:35;;;;;;;6.93;5.57;;;18.60;61.90;;;;;;5010272;28;20038;-51
2020/12/08 18:26:01;;;;;;;7.70;5.80;;;18.70;62.20;;;;;;5051735;28;20106;-49